sensor_id;sensor_type;location;lat;lon;timestamp;temperature;humidity
5689;DHT22;2869;50.432;8.680;2023-02-01T00:00:10;4.50;99.90
5689;DHT22;2869;50.432;8.680;2023-02-01T00:02:37;4.40;99.90
5689;DHT22;2869;50.432;8.680;2023-02-01T00:05:07;4.50;99.90
5689;DHT22;2869;50.432;8.680;2023-02-01T00:07:33;4.40;99.90
5689;DHT22;2869;50.432;8.680;2023-02-01T00:10:02;4.50;99.90
5689;DHT22;2869;50.432;8.680;2023-02-01T00:12:29;4.50;99.90
5689;DHT22;2869;50.432;8.680;2023-02-01T00:14:56;4.50;99.90
5689;DHT22;2869;50.432;8.680;2023-02-01T00:17:23;4.60;99.90
5689;DHT22;2869;50.432;8.680;2023-02-01T00:19:50;4.60;99.90
5689;DHT22;2869;50.432;8.680;2023-02-01T00:22:16;4.60;99.90
5689;DHT22;2869;50.432;8.680;2023-02-01T00:24:43;4.60;99.90
5689;DHT22;2869;50.432;8.680;2023-02-01T00:27:11;4.70;99.90
5689;DHT22;2869;50.432;8.680;2023-02-01T00:29:43;4.70;99.90
5689;DHT22;2869;50.432;8.680;2023-02-01T00:32:09;4.70;99.90
5689;DHT22;2869;50.432;8.680;2023-02-01T00:34:36;4.70;99.90
5689;DHT22;2869;50.432;8.680;2023-02-01T00:37:03;4.70;99.90
5689;DHT22;2869;50.432;8.680;2023-02-01T00:39:30;4.70;99.90
5689;DHT22;2869;50.432;8.680;2023-02-01T00:41:56;4.70;99.90
5689;DHT22;2869;50.432;8.680;2023-02-01T00:44:24;4.70;99.90
5689;DHT22;2869;50.432;8.680;2023-02-01T00:46:52;4.70;99.90
5689;DHT22;2869;50.432;8.680;2023-02-01T00:49:19;4.80;99.90
5689;DHT22;2869;50.432;8.680;2023-02-01T00:51:45;4.70;99.90
5689;DHT22;2869;50.432;8.680;2023-02-01T00:54:12;4.80;99.90
5689;DHT22;2869;50.432;8.680;2023-02-01T00:56:39;4.80;99.90
5689;DHT22;2869;50.432;8.680;2023-02-01T00:59:06;4.80;99.90
5689;DHT22;2869;50.432;8.680;2023-02-01T01:01:34;4.70;99.90
5689;DHT22;2869;50.432;8.680;2023-02-01T01:04:00;4.70;99.90
5689;DHT22;2869;50.432;8.680;2023-02-01T01:06:29;4.70;99.90
5689;DHT22;2869;50.432;8.680;2023-02-01T01:08:58;4.70;99.90
5689;DHT22;2869;50.432;8.680;2023-02-01T01:11:27;4.70;99.90
5689;DHT22;2869;50.432;8.680;2023-02-01T01:13:55;4.70;99.90
5689;DHT22;2869;50.432;8.680;2023-02-01T01:16:23;4.70;99.90
5689;DHT22;2869;50.432;8.680;2023-02-01T01:18:51;4.70;99.90
5689;DHT22;2869;50.432;8.680;2023-02-01T01:21:18;4.60;99.90
5689;DHT22;2869;50.432;8.680;2023-02-01T01:23:46;4.70;99.90
5689;DHT22;2869;50.432;8.680;2023-02-01T01:26:15;4.60;99.90
5689;DHT22;2869;50.432;8.680;2023-02-01T01:28:42;4.60;99.90
5689;DHT22;2869;50.432;8.680;2023-02-01T01:31:09;4.70;99.90
5689;DHT22;2869;50.432;8.680;2023-02-01T01:33:36;4.70;99.90
5689;DHT22;2869;50.432;8.680;2023-02-01T01:36:06;4.70;99.90
5689;DHT22;2869;50.432;8.680;2023-02-01T01:38:32;4.70;99.90
5689;DHT22;2869;50.432;8.680;2023-02-01T01:40:59;4.80;99.90
5689;DHT22;2869;50.432;8.680;2023-02-01T01:43:54;4.80;99.90
5689;DHT22;2869;50.432;8.680;2023-02-01T01:46:23;4.80;99.90
5689;DHT22;2869;50.432;8.680;2023-02-01T01:48:54;4.90;99.90
5689;DHT22;2869;50.432;8.680;2023-02-01T01:51:25;4.90;99.90
5689;DHT22;2869;50.432;8.680;2023-02-01T01:53:58;4.90;99.90
5689;DHT22;2869;50.432;8.680;2023-02-01T01:56:27;5.00;99.90
5689;DHT22;2869;50.432;8.680;2023-02-01T01:58:55;5.00;99.90
5689;DHT22;2869;50.432;8.680;2023-02-01T02:01:22;5.20;99.90
5689;DHT22;2869;50.432;8.680;2023-02-01T02:03:50;5.20;99.90
5689;DHT22;2869;50.432;8.680;2023-02-01T02:06:26;5.30;99.90
5689;DHT22;2869;50.432;8.680;2023-02-01T02:08:54;5.30;99.90
5689;DHT22;2869;50.432;8.680;2023-02-01T02:11:20;5.30;99.90
5689;DHT22;2869;50.432;8.680;2023-02-01T02:13:49;5.20;99.90
5689;DHT22;2869;50.432;8.680;2023-02-01T02:16:26;5.20;99.90
5689;DHT22;2869;50.432;8.680;2023-02-01T02:19:16;5.20;99.90
5689;DHT22;2869;50.432;8.680;2023-02-01T02:22:05;5.20;99.90
5689;DHT22;2869;50.432;8.680;2023-02-01T02:24:57;5.10;99.90
5689;DHT22;2869;50.432;8.680;2023-02-01T02:27:36;5.10;99.90
5689;DHT22;2869;50.432;8.680;2023-02-01T02:30:37;5.10;99.90
5689;DHT22;2869;50.432;8.680;2023-02-01T02:33:41;5.20;99.90
5689;DHT22;2869;50.432;8.680;2023-02-01T02:36:18;5.20;99.90
5689;DHT22;2869;50.432;8.680;2023-02-01T02:38:52;5.20;99.90
5689;DHT22;2869;50.432;8.680;2023-02-01T02:41:27;5.20;99.90
5689;DHT22;2869;50.432;8.680;2023-02-01T02:44:22;5.20;99.90
5689;DHT22;2869;50.432;8.680;2023-02-01T02:47:13;5.30;99.90
5689;DHT22;2869;50.432;8.680;2023-02-01T02:49:56;5.30;99.90
5689;DHT22;2869;50.432;8.680;2023-02-01T02:52:45;5.30;99.90
5689;DHT22;2869;50.432;8.680;2023-02-01T02:55:33;5.30;99.90
5689;DHT22;2869;50.432;8.680;2023-02-01T02:58:03;5.30;99.90
5689;DHT22;2869;50.432;8.680;2023-02-01T03:00:48;5.30;99.90
5689;DHT22;2869;50.432;8.680;2023-02-01T03:03:36;5.30;99.90
5689;DHT22;2869;50.432;8.680;2023-02-01T03:06:23;5.30;99.90
5689;DHT22;2869;50.432;8.680;2023-02-01T03:08:51;5.30;99.90
5689;DHT22;2869;50.432;8.680;2023-02-01T03:11:20;5.30;99.90
5689;DHT22;2869;50.432;8.680;2023-02-01T03:13:51;5.30;99.90
5689;DHT22;2869;50.432;8.680;2023-02-01T03:16:20;5.30;99.90
5689;DHT22;2869;50.432;8.680;2023-02-01T03:18:54;5.30;99.90
5689;DHT22;2869;50.432;8.680;2023-02-01T03:21:25;5.30;99.90
5689;DHT22;2869;50.432;8.680;2023-02-01T03:23:54;5.30;99.90
5689;DHT22;2869;50.432;8.680;2023-02-01T03:26:25;5.30;99.90
5689;DHT22;2869;50.432;8.680;2023-02-01T03:28:56;5.30;99.90
5689;DHT22;2869;50.432;8.680;2023-02-01T03:31:24;5.30;99.90
5689;DHT22;2869;50.432;8.680;2023-02-01T03:33:51;5.30;99.90
5689;DHT22;2869;50.432;8.680;2023-02-01T03:36:22;5.30;99.90
5689;DHT22;2869;50.432;8.680;2023-02-01T03:38:55;5.30;99.90
5689;DHT22;2869;50.432;8.680;2023-02-01T03:41:28;5.30;99.90
5689;DHT22;2869;50.432;8.680;2023-02-01T03:44:03;5.30;99.90
5689;DHT22;2869;50.432;8.680;2023-02-01T03:46:33;5.30;99.90
5689;DHT22;2869;50.432;8.680;2023-02-01T03:49:02;5.30;99.90
5689;DHT22;2869;50.432;8.680;2023-02-01T03:51:31;5.30;99.90
5689;DHT22;2869;50.432;8.680;2023-02-01T03:54:01;5.30;99.90
5689;DHT22;2869;50.432;8.680;2023-02-01T03:56:30;5.30;99.90
5689;DHT22;2869;50.432;8.680;2023-02-01T03:58:58;5.30;99.90
5689;DHT22;2869;50.432;8.680;2023-02-01T04:01:26;5.30;99.90
5689;DHT22;2869;50.432;8.680;2023-02-01T04:03:53;5.30;99.90
5689;DHT22;2869;50.432;8.680;2023-02-01T04:06:19;5.30;99.90
5689;DHT22;2869;50.432;8.680;2023-02-01T04:08:46;5.30;99.90
5689;DHT22;2869;50.432;8.680;2023-02-01T04:11:15;5.30;99.90
5689;DHT22;2869;50.432;8.680;2023-02-01T04:13:41;5.30;99.90
5689;DHT22;2869;50.432;8.680;2023-02-01T04:16:08;5.30;99.90
5689;DHT22;2869;50.432;8.680;2023-02-01T04:18:35;5.30;99.90
5689;DHT22;2869;50.432;8.680;2023-02-01T04:21:02;5.30;99.90
5689;DHT22;2869;50.432;8.680;2023-02-01T04:23:29;5.30;99.90
5689;DHT22;2869;50.432;8.680;2023-02-01T04:25:59;5.30;99.90
5689;DHT22;2869;50.432;8.680;2023-02-01T04:28:28;5.30;99.90
5689;DHT22;2869;50.432;8.680;2023-02-01T04:30:55;5.30;99.90
5689;DHT22;2869;50.432;8.680;2023-02-01T04:33:22;5.30;99.90
5689;DHT22;2869;50.432;8.680;2023-02-01T04:35:49;5.30;99.90
5689;DHT22;2869;50.432;8.680;2023-02-01T04:38:16;5.30;99.90
5689;DHT22;2869;50.432;8.680;2023-02-01T04:40:43;5.30;99.90
5689;DHT22;2869;50.432;8.680;2023-02-01T04:43:09;5.30;99.90
5689;DHT22;2869;50.432;8.680;2023-02-01T04:45:37;5.30;99.90
5689;DHT22;2869;50.432;8.680;2023-02-01T04:48:04;5.30;99.90
5689;DHT22;2869;50.432;8.680;2023-02-01T04:50:31;5.30;99.90
5689;DHT22;2869;50.432;8.680;2023-02-01T04:52:58;5.20;99.90
5689;DHT22;2869;50.432;8.680;2023-02-01T04:55:24;5.30;99.90
5689;DHT22;2869;50.432;8.680;2023-02-01T04:57:51;5.30;99.90
5689;DHT22;2869;50.432;8.680;2023-02-01T05:00:18;5.30;99.90
5689;DHT22;2869;50.432;8.680;2023-02-01T05:02:46;5.30;99.90
5689;DHT22;2869;50.432;8.680;2023-02-01T05:05:13;5.30;99.90
5689;DHT22;2869;50.432;8.680;2023-02-01T05:07:39;5.30;99.90
5689;DHT22;2869;50.432;8.680;2023-02-01T05:10:07;5.30;99.90
5689;DHT22;2869;50.432;8.680;2023-02-01T05:12:34;5.20;99.90
5689;DHT22;2869;50.432;8.680;2023-02-01T05:15:18;5.20;99.90
5689;DHT22;2869;50.432;8.680;2023-02-01T05:17:46;5.20;99.90
5689;DHT22;2869;50.432;8.680;2023-02-01T05:20:13;5.20;99.90
5689;DHT22;2869;50.432;8.680;2023-02-01T05:22:41;5.20;99.90
5689;DHT22;2869;50.432;8.680;2023-02-01T05:25:07;5.20;99.90
5689;DHT22;2869;50.432;8.680;2023-02-01T05:27:34;5.20;99.90
5689;DHT22;2869;50.432;8.680;2023-02-01T05:30:01;5.20;99.90
5689;DHT22;2869;50.432;8.680;2023-02-01T05:32:28;5.20;99.90
5689;DHT22;2869;50.432;8.680;2023-02-01T05:34:56;5.20;99.90
5689;DHT22;2869;50.432;8.680;2023-02-01T05:37:23;5.20;99.90
5689;DHT22;2869;50.432;8.680;2023-02-01T05:39:50;5.10;99.90
5689;DHT22;2869;50.432;8.680;2023-02-01T05:42:16;5.10;99.90
5689;DHT22;2869;50.432;8.680;2023-02-01T05:44:43;5.20;99.90
5689;DHT22;2869;50.432;8.680;2023-02-01T05:47:10;5.10;99.90
5689;DHT22;2869;50.432;8.680;2023-02-01T05:49:37;5.00;99.90
5689;DHT22;2869;50.432;8.680;2023-02-01T05:52:05;5.00;99.90
5689;DHT22;2869;50.432;8.680;2023-02-01T05:54:32;4.90;99.90
5689;DHT22;2869;50.432;8.680;2023-02-01T05:56:59;4.90;99.90
5689;DHT22;2869;50.432;8.680;2023-02-01T05:59:25;4.90;99.90
5689;DHT22;2869;50.432;8.680;2023-02-01T06:01:52;4.90;99.90
5689;DHT22;2869;50.432;8.680;2023-02-01T06:04:19;5.00;99.90
5689;DHT22;2869;50.432;8.680;2023-02-01T06:06:45;5.00;99.90
5689;DHT22;2869;50.432;8.680;2023-02-01T06:09:13;4.90;99.90
5689;DHT22;2869;50.432;8.680;2023-02-01T06:11:40;5.00;99.90
5689;DHT22;2869;50.432;8.680;2023-02-01T06:14:06;5.00;99.90
5689;DHT22;2869;50.432;8.680;2023-02-01T06:16:33;4.90;99.90
5689;DHT22;2869;50.432;8.680;2023-02-01T06:19:00;4.90;99.90
5689;DHT22;2869;50.432;8.680;2023-02-01T06:21:27;4.90;99.90
5689;DHT22;2869;50.432;8.680;2023-02-01T06:23:53;4.90;99.90
5689;DHT22;2869;50.432;8.680;2023-02-01T06:26:22;4.80;99.90
5689;DHT22;2869;50.432;8.680;2023-02-01T06:28:48;4.80;99.90
5689;DHT22;2869;50.432;8.680;2023-02-01T06:31:15;4.80;99.90
5689;DHT22;2869;50.432;8.680;2023-02-01T06:33:42;4.90;99.90
5689;DHT22;2869;50.432;8.680;2023-02-01T06:36:10;4.90;99.90
5689;DHT22;2869;50.432;8.680;2023-02-01T06:38:37;4.90;99.90
5689;DHT22;2869;50.432;8.680;2023-02-01T06:41:05;4.80;99.90
5689;DHT22;2869;50.432;8.680;2023-02-01T06:43:33;4.80;99.90
5689;DHT22;2869;50.432;8.680;2023-02-01T06:46:01;4.80;99.90
5689;DHT22;2869;50.432;8.680;2023-02-01T06:48:27;4.80;99.90
5689;DHT22;2869;50.432;8.680;2023-02-01T06:50:54;4.80;99.90
5689;DHT22;2869;50.432;8.680;2023-02-01T06:53:21;4.80;99.90
5689;DHT22;2869;50.432;8.680;2023-02-01T06:55:54;4.80;99.90
5689;DHT22;2869;50.432;8.680;2023-02-01T06:58:21;4.80;99.90
5689;DHT22;2869;50.432;8.680;2023-02-01T07:00:49;4.80;99.90
5689;DHT22;2869;50.432;8.680;2023-02-01T07:03:16;4.80;99.90
5689;DHT22;2869;50.432;8.680;2023-02-01T07:05:43;4.90;99.90
5689;DHT22;2869;50.432;8.680;2023-02-01T07:08:09;5.50;99.90
5689;DHT22;2869;50.432;8.680;2023-02-01T07:10:37;6.10;99.90
5689;DHT22;2869;50.432;8.680;2023-02-01T07:13:03;6.80;99.90
5689;DHT22;2869;50.432;8.680;2023-02-01T07:15:30;7.20;99.90
5689;DHT22;2869;50.432;8.680;2023-02-01T07:17:59;7.50;99.90
5689;DHT22;2869;50.432;8.680;2023-02-01T07:20:25;7.40;99.90
5689;DHT22;2869;50.432;8.680;2023-02-01T07:22:55;7.00;99.90
5689;DHT22;2869;50.432;8.680;2023-02-01T07:25:22;6.60;99.90
5689;DHT22;2869;50.432;8.680;2023-02-01T07:27:48;6.20;99.90
5689;DHT22;2869;50.432;8.680;2023-02-01T07:30:15;6.00;99.90
5689;DHT22;2869;50.432;8.680;2023-02-01T07:32:42;5.80;99.90
5689;DHT22;2869;50.432;8.680;2023-02-01T07:35:10;5.60;99.90
5689;DHT22;2869;50.432;8.680;2023-02-01T07:37:37;5.60;99.90
5689;DHT22;2869;50.432;8.680;2023-02-01T07:40:04;5.50;99.90
5689;DHT22;2869;50.432;8.680;2023-02-01T07:42:31;5.40;99.90
5689;DHT22;2869;50.432;8.680;2023-02-01T07:44:58;5.40;99.90
5689;DHT22;2869;50.432;8.680;2023-02-01T07:47:25;5.40;99.90
5689;DHT22;2869;50.432;8.680;2023-02-01T07:49:51;5.40;99.90
5689;DHT22;2869;50.432;8.680;2023-02-01T07:52:19;5.40;99.90
5689;DHT22;2869;50.432;8.680;2023-02-01T07:54:46;5.40;99.90
5689;DHT22;2869;50.432;8.680;2023-02-01T07:57:12;5.40;99.90
5689;DHT22;2869;50.432;8.680;2023-02-01T07:59:39;5.40;99.90
5689;DHT22;2869;50.432;8.680;2023-02-01T08:02:26;5.40;99.90
5689;DHT22;2869;50.432;8.680;2023-02-01T08:04:53;5.40;99.90
5689;DHT22;2869;50.432;8.680;2023-02-01T08:07:21;5.40;99.90
5689;DHT22;2869;50.432;8.680;2023-02-01T08:09:47;5.40;99.90
5689;DHT22;2869;50.432;8.680;2023-02-01T08:12:14;5.40;99.90
5689;DHT22;2869;50.432;8.680;2023-02-01T08:14:41;5.40;99.90
5689;DHT22;2869;50.432;8.680;2023-02-01T08:17:07;5.40;99.90
5689;DHT22;2869;50.432;8.680;2023-02-01T08:19:34;5.40;99.90
5689;DHT22;2869;50.432;8.680;2023-02-01T08:22:00;5.40;99.90
5689;DHT22;2869;50.432;8.680;2023-02-01T08:24:33;5.40;99.90
5689;DHT22;2869;50.432;8.680;2023-02-01T08:27:00;5.40;99.90
5689;DHT22;2869;50.432;8.680;2023-02-01T08:29:28;5.40;99.90
5689;DHT22;2869;50.432;8.680;2023-02-01T08:31:54;5.50;99.90
5689;DHT22;2869;50.432;8.680;2023-02-01T08:34:21;5.50;99.90
5689;DHT22;2869;50.432;8.680;2023-02-01T08:36:48;5.50;99.90
5689;DHT22;2869;50.432;8.680;2023-02-01T08:39:17;5.50;99.90
5689;DHT22;2869;50.432;8.680;2023-02-01T08:41:45;5.50;99.90
5689;DHT22;2869;50.432;8.680;2023-02-01T08:44:33;5.50;99.90
5689;DHT22;2869;50.432;8.680;2023-02-01T08:47:00;5.50;99.90
5689;DHT22;2869;50.432;8.680;2023-02-01T08:49:26;5.50;99.90
5689;DHT22;2869;50.432;8.680;2023-02-01T08:51:53;5.50;99.90
5689;DHT22;2869;50.432;8.680;2023-02-01T08:54:20;5.50;99.90
5689;DHT22;2869;50.432;8.680;2023-02-01T08:56:48;5.50;99.90
5689;DHT22;2869;50.432;8.680;2023-02-01T08:59:15;5.50;99.90
5689;DHT22;2869;50.432;8.680;2023-02-01T09:01:42;5.50;99.90
5689;DHT22;2869;50.432;8.680;2023-02-01T09:04:08;5.50;99.90
5689;DHT22;2869;50.432;8.680;2023-02-01T09:06:35;5.50;99.90
5689;DHT22;2869;50.432;8.680;2023-02-01T09:09:02;5.50;99.90
5689;DHT22;2869;50.432;8.680;2023-02-01T09:11:28;5.50;99.90
5689;DHT22;2869;50.432;8.680;2023-02-01T09:13:56;5.50;99.90
5689;DHT22;2869;50.432;8.680;2023-02-01T09:16:23;5.40;99.90
5689;DHT22;2869;50.432;8.680;2023-02-01T09:18:49;5.40;99.90
5689;DHT22;2869;50.432;8.680;2023-02-01T09:21:16;5.40;99.90
5689;DHT22;2869;50.432;8.680;2023-02-01T09:23:43;5.40;99.90
5689;DHT22;2869;50.432;8.680;2023-02-01T09:26:10;5.50;99.90
5689;DHT22;2869;50.432;8.680;2023-02-01T09:28:37;5.60;99.90
5689;DHT22;2869;50.432;8.680;2023-02-01T09:31:05;5.50;99.90
5689;DHT22;2869;50.432;8.680;2023-02-01T09:33:32;5.60;99.90
5689;DHT22;2869;50.432;8.680;2023-02-01T09:36:00;5.60;99.90
5689;DHT22;2869;50.432;8.680;2023-02-01T09:38:27;5.60;99.90
5689;DHT22;2869;50.432;8.680;2023-02-01T09:40:55;5.60;99.90
5689;DHT22;2869;50.432;8.680;2023-02-01T09:43:34;5.60;99.90
5689;DHT22;2869;50.432;8.680;2023-02-01T09:46:18;5.60;99.90
5689;DHT22;2869;50.432;8.680;2023-02-01T09:48:47;5.60;99.90
5689;DHT22;2869;50.432;8.680;2023-02-01T09:51:18;5.60;99.90
5689;DHT22;2869;50.432;8.680;2023-02-01T09:53:51;5.70;99.90
5689;DHT22;2869;50.432;8.680;2023-02-01T09:56:24;5.70;99.90
5689;DHT22;2869;50.432;8.680;2023-02-01T09:59:01;5.70;99.90
5689;DHT22;2869;50.432;8.680;2023-02-01T10:01:32;5.70;99.90
5689;DHT22;2869;50.432;8.680;2023-02-01T10:04:02;5.80;99.90
5689;DHT22;2869;50.432;8.680;2023-02-01T10:06:40;5.80;99.90
5689;DHT22;2869;50.432;8.680;2023-02-01T10:09:39;5.90;99.90
5689;DHT22;2869;50.432;8.680;2023-02-01T10:15:26;6.10;99.90
5689;DHT22;2869;50.432;8.680;2023-02-01T10:18:15;6.30;99.90
5689;DHT22;2869;50.432;8.680;2023-02-01T10:20:54;6.50;99.90
5689;DHT22;2869;50.432;8.680;2023-02-01T10:23:39;6.80;99.90
5689;DHT22;2869;50.432;8.680;2023-02-01T10:26:18;7.10;99.90
5689;DHT22;2869;50.432;8.680;2023-02-01T10:28:48;7.20;99.90
5689;DHT22;2869;50.432;8.680;2023-02-01T10:31:16;7.20;99.90
5689;DHT22;2869;50.432;8.680;2023-02-01T10:33:45;7.00;99.90
5689;DHT22;2869;50.432;8.680;2023-02-01T10:36:16;6.70;99.90
5689;DHT22;2869;50.432;8.680;2023-02-01T10:38:45;6.60;99.90
5689;DHT22;2869;50.432;8.680;2023-02-01T10:41:14;6.60;99.90
5689;DHT22;2869;50.432;8.680;2023-02-01T10:43:42;6.60;99.90
5689;DHT22;2869;50.432;8.680;2023-02-01T10:46:09;6.70;99.90
5689;DHT22;2869;50.432;8.680;2023-02-01T10:48:37;6.70;99.90
5689;DHT22;2869;50.432;8.680;2023-02-01T10:51:12;6.80;99.90
5689;DHT22;2869;50.432;8.680;2023-02-01T10:53:44;6.90;99.90
5689;DHT22;2869;50.432;8.680;2023-02-01T10:56:12;6.90;99.90
5689;DHT22;2869;50.432;8.680;2023-02-01T10:58:44;6.90;99.90
5689;DHT22;2869;50.432;8.680;2023-02-01T11:01:17;7.00;99.90
5689;DHT22;2869;50.432;8.680;2023-02-01T11:03:52;7.10;99.90
5689;DHT22;2869;50.432;8.680;2023-02-01T11:06:27;7.10;99.90
5689;DHT22;2869;50.432;8.680;2023-02-01T11:08:55;7.00;99.90
5689;DHT22;2869;50.432;8.680;2023-02-01T11:11:23;7.00;99.90
5689;DHT22;2869;50.432;8.680;2023-02-01T11:13:56;6.80;99.90
5689;DHT22;2869;50.432;8.680;2023-02-01T11:16:30;6.70;99.90
5689;DHT22;2869;50.432;8.680;2023-02-01T11:18:59;6.70;99.90
5689;DHT22;2869;50.432;8.680;2023-02-01T11:21:27;6.70;99.90
5689;DHT22;2869;50.432;8.680;2023-02-01T11:23:54;6.70;99.90
5689;DHT22;2869;50.432;8.680;2023-02-01T11:26:23;6.80;99.90
5689;DHT22;2869;50.432;8.680;2023-02-01T11:28:54;6.80;99.90
5689;DHT22;2869;50.432;8.680;2023-02-01T11:31:24;6.70;99.90
5689;DHT22;2869;50.432;8.680;2023-02-01T11:33:53;6.70;99.90
5689;DHT22;2869;50.432;8.680;2023-02-01T11:36:24;6.80;99.90
5689;DHT22;2869;50.432;8.680;2023-02-01T11:39:08;6.70;99.90
5689;DHT22;2869;50.432;8.680;2023-02-01T11:41:41;6.70;99.90
5689;DHT22;2869;50.432;8.680;2023-02-01T11:44:19;6.60;99.90
5689;DHT22;2869;50.432;8.680;2023-02-01T11:46:46;6.60;99.90
5689;DHT22;2869;50.432;8.680;2023-02-01T11:49:21;6.70;99.90
5689;DHT22;2869;50.432;8.680;2023-02-01T11:52:06;7.00;99.90
5689;DHT22;2869;50.432;8.680;2023-02-01T11:54:49;7.10;99.90
5689;DHT22;2869;50.432;8.680;2023-02-01T11:57:31;7.40;99.90
5689;DHT22;2869;50.432;8.680;2023-02-01T12:00:08;7.60;99.90
5689;DHT22;2869;50.432;8.680;2023-02-01T12:02:58;7.60;99.90
5689;DHT22;2869;50.432;8.680;2023-02-01T12:05:38;7.50;99.90
5689;DHT22;2869;50.432;8.680;2023-02-01T12:08:26;7.40;99.90
5689;DHT22;2869;50.432;8.680;2023-02-01T12:11:27;7.60;99.90
5689;DHT22;2869;50.432;8.680;2023-02-01T12:14:04;8.00;99.90
5689;DHT22;2869;50.432;8.680;2023-02-01T12:16:40;8.40;99.90
5689;DHT22;2869;50.432;8.680;2023-02-01T12:19:19;8.70;99.90
5689;DHT22;2869;50.432;8.680;2023-02-01T12:22:13;8.60;99.90
5689;DHT22;2869;50.432;8.680;2023-02-01T12:25:13;8.40;99.90
5689;DHT22;2869;50.432;8.680;2023-02-01T12:28:04;8.50;99.90
5689;DHT22;2869;50.432;8.680;2023-02-01T12:30:52;8.40;99.90
5689;DHT22;2869;50.432;8.680;2023-02-01T12:33:28;8.40;99.90
5689;DHT22;2869;50.432;8.680;2023-02-01T12:36:07;8.60;99.90
5689;DHT22;2869;50.432;8.680;2023-02-01T12:38:44;8.70;99.90
5689;DHT22;2869;50.432;8.680;2023-02-01T12:41:33;8.70;99.90
5689;DHT22;2869;50.432;8.680;2023-02-01T12:44:04;8.60;99.90
5689;DHT22;2869;50.432;8.680;2023-02-01T12:46:39;8.60;99.90
5689;DHT22;2869;50.432;8.680;2023-02-01T12:49:10;8.50;99.90
5689;DHT22;2869;50.432;8.680;2023-02-01T12:51:42;8.70;99.90
5689;DHT22;2869;50.432;8.680;2023-02-01T12:54:14;9.00;99.90
5689;DHT22;2869;50.432;8.680;2023-02-01T12:56:47;9.30;99.90
5689;DHT22;2869;50.432;8.680;2023-02-01T12:59:20;9.40;99.90
5689;DHT22;2869;50.432;8.680;2023-02-01T13:01:54;9.30;99.90
5689;DHT22;2869;50.432;8.680;2023-02-01T13:04:27;9.10;99.90
5689;DHT22;2869;50.432;8.680;2023-02-01T13:07:03;9.30;99.90
5689;DHT22;2869;50.432;8.680;2023-02-01T13:09:37;9.40;99.90
5689;DHT22;2869;50.432;8.680;2023-02-01T13:12:10;9.60;99.90
5689;DHT22;2869;50.432;8.680;2023-02-01T13:14:43;9.40;99.90
5689;DHT22;2869;50.432;8.680;2023-02-01T13:17:15;9.40;99.90
5689;DHT22;2869;50.432;8.680;2023-02-01T13:19:45;9.20;99.90
5689;DHT22;2869;50.432;8.680;2023-02-01T13:22:19;9.40;99.90
5689;DHT22;2869;50.432;8.680;2023-02-01T13:24:49;9.40;99.90
5689;DHT22;2869;50.432;8.680;2023-02-01T13:27:17;9.30;99.90
5689;DHT22;2869;50.432;8.680;2023-02-01T13:29:54;8.90;99.90
5689;DHT22;2869;50.432;8.680;2023-02-01T13:32:37;8.60;99.90
5689;DHT22;2869;50.432;8.680;2023-02-01T13:35:33;8.40;99.90
5689;DHT22;2869;50.432;8.680;2023-02-01T13:38:15;8.40;99.90
5689;DHT22;2869;50.432;8.680;2023-02-01T13:40:51;8.40;99.90
5689;DHT22;2869;50.432;8.680;2023-02-01T13:43:25;8.30;99.90
5689;DHT22;2869;50.432;8.680;2023-02-01T13:45:56;8.30;99.90
5689;DHT22;2869;50.432;8.680;2023-02-01T13:48:28;8.40;99.90
5689;DHT22;2869;50.432;8.680;2023-02-01T13:50:56;8.60;99.90
5689;DHT22;2869;50.432;8.680;2023-02-01T13:53:28;8.70;99.90
5689;DHT22;2869;50.432;8.680;2023-02-01T13:56:00;8.70;99.90
5689;DHT22;2869;50.432;8.680;2023-02-01T13:58:33;8.60;99.90
5689;DHT22;2869;50.432;8.680;2023-02-01T14:07:18;8.20;99.90
5689;DHT22;2869;50.432;8.680;2023-02-01T14:09:45;8.20;99.90
5689;DHT22;2869;50.432;8.680;2023-02-01T14:12:46;8.00;99.90
5689;DHT22;2869;50.432;8.680;2023-02-01T14:15:19;7.90;99.90
5689;DHT22;2869;50.432;8.680;2023-02-01T14:17:48;7.80;99.90
5689;DHT22;2869;50.432;8.680;2023-02-01T14:20:45;7.70;99.90
5689;DHT22;2869;50.432;8.680;2023-02-01T14:23:23;7.60;99.90
5689;DHT22;2869;50.432;8.680;2023-02-01T14:26:14;7.60;99.90
5689;DHT22;2869;50.432;8.680;2023-02-01T14:29:00;7.70;99.90
5689;DHT22;2869;50.432;8.680;2023-02-01T14:31:35;7.50;99.90
5689;DHT22;2869;50.432;8.680;2023-02-01T14:34:15;7.50;99.90
5689;DHT22;2869;50.432;8.680;2023-02-01T14:36:46;7.60;99.90
5689;DHT22;2869;50.432;8.680;2023-02-01T14:39:34;7.60;99.90
5689;DHT22;2869;50.432;8.680;2023-02-01T14:42:05;7.50;99.90
5689;DHT22;2869;50.432;8.680;2023-02-01T14:44:40;7.50;99.90
5689;DHT22;2869;50.432;8.680;2023-02-01T14:47:31;7.30;99.90
5689;DHT22;2869;50.432;8.680;2023-02-01T14:50:17;7.30;99.90
5689;DHT22;2869;50.432;8.680;2023-02-01T14:52:49;7.30;99.90
5689;DHT22;2869;50.432;8.680;2023-02-01T14:55:24;7.30;99.90
5689;DHT22;2869;50.432;8.680;2023-02-01T14:57:53;7.20;99.90
5689;DHT22;2869;50.432;8.680;2023-02-01T15:00:24;7.10;99.90
5689;DHT22;2869;50.432;8.680;2023-02-01T15:02:53;7.10;99.90
5689;DHT22;2869;50.432;8.680;2023-02-01T15:05:30;7.00;99.90
5689;DHT22;2869;50.432;8.680;2023-02-01T15:08:03;6.90;99.90
5689;DHT22;2869;50.432;8.680;2023-02-01T15:10:33;6.90;99.90
5689;DHT22;2869;50.432;8.680;2023-02-01T15:13:18;6.80;99.90
5689;DHT22;2869;50.432;8.680;2023-02-01T15:15:45;6.70;99.90
5689;DHT22;2869;50.432;8.680;2023-02-01T15:18:25;6.60;99.90
5689;DHT22;2869;50.432;8.680;2023-02-01T15:20:56;6.50;99.90
5689;DHT22;2869;50.432;8.680;2023-02-01T15:23:23;6.50;99.90
5689;DHT22;2869;50.432;8.680;2023-02-01T15:25:51;6.40;99.90
5689;DHT22;2869;50.432;8.680;2023-02-01T15:28:18;6.30;99.90
5689;DHT22;2869;50.432;8.680;2023-02-01T15:30:53;6.20;99.90
5689;DHT22;2869;50.432;8.680;2023-02-01T15:33:20;6.20;99.90
5689;DHT22;2869;50.432;8.680;2023-02-01T15:35:48;6.10;99.90
5689;DHT22;2869;50.432;8.680;2023-02-01T15:38:38;6.10;99.90
5689;DHT22;2869;50.432;8.680;2023-02-01T15:41:09;6.10;99.90
5689;DHT22;2869;50.432;8.680;2023-02-01T15:43:41;6.10;99.90
5689;DHT22;2869;50.432;8.680;2023-02-01T15:46:11;6.10;99.90
5689;DHT22;2869;50.432;8.680;2023-02-01T15:48:43;6.00;99.90
5689;DHT22;2869;50.432;8.680;2023-02-01T15:51:17;6.00;99.90
5689;DHT22;2869;50.432;8.680;2023-02-01T15:53:46;5.90;99.90
5689;DHT22;2869;50.432;8.680;2023-02-01T15:56:15;5.80;99.90
5689;DHT22;2869;50.432;8.680;2023-02-01T15:58:45;5.80;99.90
5689;DHT22;2869;50.432;8.680;2023-02-01T16:01:15;5.70;99.90
5689;DHT22;2869;50.432;8.680;2023-02-01T16:03:44;5.70;99.90
5689;DHT22;2869;50.432;8.680;2023-02-01T16:06:26;5.70;99.90
5689;DHT22;2869;50.432;8.680;2023-02-01T16:08:55;5.70;99.90
5689;DHT22;2869;50.432;8.680;2023-02-01T16:11:25;5.70;99.90
5689;DHT22;2869;50.432;8.680;2023-02-01T16:13:55;5.70;99.90
5689;DHT22;2869;50.432;8.680;2023-02-01T16:16:23;5.70;99.90
5689;DHT22;2869;50.432;8.680;2023-02-01T16:18:49;5.70;99.90
5689;DHT22;2869;50.432;8.680;2023-02-01T16:21:16;5.80;99.90
5689;DHT22;2869;50.432;8.680;2023-02-01T16:23:43;5.80;99.90
5689;DHT22;2869;50.432;8.680;2023-02-01T16:26:09;5.80;99.90
5689;DHT22;2869;50.432;8.680;2023-02-01T16:28:38;5.90;99.90
5689;DHT22;2869;50.432;8.680;2023-02-01T16:31:08;5.90;99.90
5689;DHT22;2869;50.432;8.680;2023-02-01T16:33:38;5.90;99.90
5689;DHT22;2869;50.432;8.680;2023-02-01T16:36:07;6.00;99.90
5689;DHT22;2869;50.432;8.680;2023-02-01T16:38:34;5.90;99.90
5689;DHT22;2869;50.432;8.680;2023-02-01T16:41:01;6.00;99.90
5689;DHT22;2869;50.432;8.680;2023-02-01T16:43:28;6.00;99.90
5689;DHT22;2869;50.432;8.680;2023-02-01T16:45:59;6.00;99.90
5689;DHT22;2869;50.432;8.680;2023-02-01T16:48:29;6.00;99.90
5689;DHT22;2869;50.432;8.680;2023-02-01T16:50:58;6.00;99.90
5689;DHT22;2869;50.432;8.680;2023-02-01T16:53:27;6.00;99.90